Time;durP1;ratioP1;P1;durP2;ratioP2;P2;SDS_P1;SDS_P2;PMS_P1;PMS_P2;Temp;Humidity;BMP_temperature;BMP_pressure;BME280_temperature;BME280_humidity;BME280_pressure;Samples;Min_cycle;Max_cycle;Signal;HPM_P1;HPM_P2
2023/08/20 00:02:10;;;;;;;3.70;2.08;;;;;;;;;;5031216;28;20028;-89
2023/08/20 00:04:36;;;;;;;2.75;1.90;;;;;;;;;;5031502;28;20033;-88
2023/08/20 00:07:02;;;;;;;3.42;2.17;;;;;;;;;;5016443;28;20056;-89
2023/08/20 00:09:28;;;;;;;4.95;2.33;;;;;;;;;;5015478;28;20128;-89
2023/08/20 00:11:53;;;;;;;3.25;2.17;;;;;;;;;;5032749;28;20112;-88
2023/08/20 00:14:19;;;;;;;3.75;2.00;;;;;;;;;;5032537;28;20463;-88
2023/08/20 00:16:44;;;;;;;2.88;2.08;;;;;;;;;;5014714;28;20504;-88
2023/08/20 00:19:10;;;;;;;3.83;2.30;;;;;;;;;;5015378;28;20439;-88
2023/08/20 00:21:39;;;;;;;3.08;2.28;;;;;;;;;;5031781;28;20571;-89
2023/08/20 00:24:04;;;;;;;3.00;2.35;;;;;;;;;;5031363;28;20431;-89
2023/08/20 00:26:30;;;;;;;5.35;2.40;;;;;;;;;;5033481;28;20086;-87
2023/08/20 00:28:55;;;;;;;4.22;2.55;;;;;;;;;;5031599;28;20041;-89
2023/08/20 00:31:21;;;;;;;3.72;2.50;;;;;;;;;;5032110;28;20021;-89
2023/08/20 00:33:46;;;;;;;3.53;2.40;;;;;;;;;;5014437;28;20408;-88
2023/08/20 00:36:12;;;;;;;3.03;2.25;;;;;;;;;;5014213;28;20026;-89
2023/08/20 00:38:37;;;;;;;4.53;2.40;;;;;;;;;;5014636;28;20516;-87
2023/08/20 00:41:03;;;;;;;5.38;2.53;;;;;;;;;;5030889;28;20025;-88
2023/08/20 00:43:28;;;;;;;6.63;2.90;;;;;;;;;;5032503;28;20546;-88
2023/08/20 00:45:55;;;;;;;4.00;2.38;;;;;;;;;;5032201;28;20037;-88
2023/08/20 00:48:21;;;;;;;5.22;2.75;;;;;;;;;;5031067;28;20068;-88
2023/08/20 00:50:46;;;;;;;5.22;2.90;;;;;;;;;;4997839;28;20033;-88
2023/08/20 00:53:12;;;;;;;4.10;3.10;;;;;;;;;;5030380;28;20092;-88
2023/08/20 00:55:37;;;;;;;5.82;3.00;;;;;;;;;;5031726;28;20025;-89
2023/08/20 00:58:03;;;;;;;4.55;2.95;;;;;;;;;;5031711;28;20116;-88
2023/08/20 01:00:28;;;;;;;6.75;2.95;;;;;;;;;;5030815;28;20027;-88
2023/08/20 01:03:19;;;;;;;5.68;3.22;;;;;;;;;;5031634;28;20048;-87
2023/08/20 01:05:46;;;;;;;5.57;3.15;;;;;;;;;;5047479;28;20041;-88
2023/08/20 01:08:11;;;;;;;4.97;3.38;;;;;;;;;;5030586;28;20021;-89
2023/08/20 01:10:52;;;;;;;6.13;3.55;;;;;;;;;;5030773;28;20044;-89
2023/08/20 01:13:18;;;;;;;6.95;3.33;;;;;;;;;;5031640;28;20511;-88
2023/08/20 01:15:43;;;;;;;5.03;2.13;;;;;;;;;;5030422;28;20114;-88
2023/08/20 01:18:10;;;;;;;5.20;2.90;;;;;;;;;;5035444;28;20043;-87
2023/08/20 01:20:36;;;;;;;9.43;3.10;;;;;;;;;;5017439;28;20512;-88
2023/08/20 01:23:21;;;;;;;4.32;3.50;;;;;;;;;;5051934;28;20037;-88
2023/08/20 01:25:56;;;;;;;4.78;3.17;;;;;;;;;;5018787;28;20037;-89
2023/08/20 01:28:21;;;;;;;6.20;3.53;;;;;;;;;;5034031;28;20033;-88
2023/08/20 01:30:47;;;;;;;6.10;3.20;;;;;;;;;;5034851;28;20026;-88
2023/08/20 01:33:12;;;;;;;6.50;3.20;;;;;;;;;;5034212;28;20045;-88
2023/08/20 01:35:38;;;;;;;6.70;3.45;;;;;;;;;;5035798;28;20059;-89
2023/08/20 01:38:11;;;;;;;4.72;3.20;;;;;;;;;;5034346;28;20029;-89
2023/08/20 01:40:36;;;;;;;6.05;4.03;;;;;;;;;;5034094;28;20040;-88
2023/08/20 01:43:02;;;;;;;5.88;3.58;;;;;;;;;;5036204;28;20388;-88
2023/08/20 01:45:28;;;;;;;7.40;3.85;;;;;;;;;;5018057;28;20068;-88
2023/08/20 01:47:53;;;;;;;5.20;3.55;;;;;;;;;;5017500;28;20029;-88
2023/08/20 01:50:19;;;;;;;6.60;3.88;;;;;;;;;;5033641;28;20067;-88
2023/08/20 01:52:44;;;;;;;7.13;4.20;;;;;;;;;;5033711;28;20134;-88
2023/08/20 01:55:10;;;;;;;6.32;4.32;;;;;;;;;;5017386;28;20033;-89
2023/08/20 01:57:36;;;;;;;9.23;4.40;;;;;;;;;;5034236;28;20022;-87
2023/08/20 02:00:04;;;;;;;6.65;4.10;;;;;;;;;;5033578;28;20033;-88
2023/08/20 02:02:39;;;;;;;6.47;4.40;;;;;;;;;;5033807;28;20499;-88
2023/08/20 02:05:04;;;;;;;5.32;4.28;;;;;;;;;;5016591;28;20037;-88
2023/08/20 02:07:30;;;;;;;7.07;4.57;;;;;;;;;;5033285;28;20048;-88
2023/08/20 02:09:55;;;;;;;6.55;4.70;;;;;;;;;;5016534;28;20029;-88
2023/08/20 02:12:21;;;;;;;8.90;5.47;;;;;;;;;;5000901;28;20033;-88
2023/08/20 02:14:47;;;;;;;6.93;4.80;;;;;;;;;;5033524;28;20051;-88
2023/08/20 02:17:12;;;;;;;8.13;5.00;;;;;;;;;;5033492;28;20084;-88
2023/08/20 02:19:38;;;;;;;6.72;5.03;;;;;;;;;;5033403;28;20040;-87
2023/08/20 02:22:04;;;;;;;7.75;5.85;;;;;;;;;;5033428;28;20116;-88
2023/08/20 02:24:29;;;;;;;7.78;5.40;;;;;;;;;;5016837;28;20042;-89
2023/08/20 02:26:55;;;;;;;6.43;4.70;;;;;;;;;;5033216;28;20095;-89
2023/08/20 02:29:20;;;;;;;10.50;5.53;;;;;;;;;;5015856;28;20558;-88
2023/08/20 02:31:46;;;;;;;7.88;5.28;;;;;;;;;;5032760;28;20397;-88
2023/08/20 02:34:11;;;;;;;7.80;5.50;;;;;;;;;;5032958;28;20520;-87
2023/08/20 02:36:38;;;;;;;8.77;5.95;;;;;;;;;;5016138;28;20123;-88
2023/08/20 02:39:07;;;;;;;9.55;5.93;;;;;;;;;;5032792;28;20120;-88
2023/08/20 02:41:35;;;;;;;8.23;5.90;;;;;;;;;;5032413;28;20022;-88
2023/08/20 02:44:02;;;;;;;10.98;5.88;;;;;;;;;;5032569;28;20033;-88
2023/08/20 02:46:27;;;;;;;10.88;6.10;;;;;;;;;;5032279;28;20025;-88
2023/08/20 02:48:52;;;;;;;6.78;5.70;;;;;;;;;;5032223;28;20037;-88
2023/08/20 02:51:19;;;;;;;9.43;5.78;;;;;;;;;;5032583;28;20496;-87
2023/08/20 02:53:45;;;;;;;9.48;6.05;;;;;;;;;;5033781;28;20033;-87
2023/08/20 02:56:10;;;;;;;9.63;6.90;;;;;;;;;;5032378;28;20116;-87
2023/08/20 02:58:36;;;;;;;9.30;5.95;;;;;;;;;;5016464;28;20029;-87
2023/08/20 03:01:01;;;;;;;8.43;6.18;;;;;;;;;;5032577;28;20056;-87
2023/08/20 03:03:27;;;;;;;8.05;6.18;;;;;;;;;;5016336;28;20115;-87
2023/08/20 03:05:53;;;;;;;7.97;5.80;;;;;;;;;;5015856;28;20026;-88
2023/08/20 03:08:18;;;;;;;10.13;6.15;;;;;;;;;;5033535;28;20586;-87
2023/08/20 03:10:44;;;;;;;8.95;6.32;;;;;;;;;;5049007;28;20026;-87
2023/08/20 03:13:09;;;;;;;7.88;6.00;;;;;;;;;;5032196;28;20037;-87
2023/08/20 03:15:35;;;;;;;8.45;5.90;;;;;;;;;;5016747;28;20412;-88
2023/08/20 03:18:00;;;;;;;8.60;5.80;;;;;;;;;;5032740;28;20044;-88
2023/08/20 03:20:28;;;;;;;10.52;5.75;;;;;;;;;;5031933;28;20562;-88
2023/08/20 03:22:53;;;;;;;7.53;5.53;;;;;;;;;;5033326;28;20084;-88
2023/08/20 03:25:20;;;;;;;7.00;5.50;;;;;;;;;;5033598;28;20033;-88
2023/08/20 03:27:45;;;;;;;6.68;5.20;;;;;;;;;;5033177;28;20044;-88
2023/08/20 03:30:11;;;;;;;7.72;5.32;;;;;;;;;;5032096;28;20473;-88
2023/08/20 03:32:37;;;;;;;9.07;6.00;;;;;;;;;;5016166;28;20041;-87
2023/08/20 03:35:02;;;;;;;6.85;5.85;;;;;;;;;;5015853;28;20079;-88
2023/08/20 03:37:28;;;;;;;7.43;5.70;;;;;;;;;;5015601;28;20030;-87
2023/08/20 03:39:53;;;;;;;5.85;4.85;;;;;;;;;;5016153;28;20025;-88
2023/08/20 03:42:19;;;;;;;9.00;5.35;;;;;;;;;;5016204;28;20041;-88
2023/08/20 03:44:44;;;;;;;7.07;5.03;;;;;;;;;;5016101;28;20018;-89
2023/08/20 03:47:10;;;;;;;7.57;5.13;;;;;;;;;;5032762;28;20041;-88
2023/08/20 03:49:36;;;;;;;9.48;5.55;;;;;;;;;;5031811;28;20060;-88
2023/08/20 03:52:06;;;;;;;8.13;5.30;;;;;;;;;;5015694;28;20057;-89
2023/08/20 03:54:32;;;;;;;7.90;5.60;;;;;;;;;;5015237;28;20037;-89
2023/08/20 03:56:58;;;;;;;7.35;5.38;;;;;;;;;;5033220;28;20033;-89
2023/08/20 03:59:23;;;;;;;6.68;5.03;;;;;;;;;;5032829;28;20032;-88
2023/08/20 04:01:49;;;;;;;9.30;5.50;;;;;;;;;;5032746;28;20045;-89
2023/08/20 04:04:14;;;;;;;5.90;4.88;;;;;;;;;;5031367;28;20049;-89
2023/08/20 04:06:41;;;;;;;8.00;5.20;;;;;;;;;;5031725;28;20037;-89
2023/08/20 04:09:08;;;;;;;8.93;4.90;;;;;;;;;;5031426;28;20616;-89
2023/08/20 04:11:34;;;;;;;6.30;5.57;;;;;;;;;;5032524;28;20038;-89
2023/08/20 04:14:00;;;;;;;7.20;5.45;;;;;;;;;;5014877;28;20705;-89
2023/08/20 04:16:25;;;;;;;8.88;5.70;;;;;;;;;;5014488;28;20038;-89
2023/08/20 04:18:51;;;;;;;9.23;6.10;;;;;;;;;;5014384;28;20094;-89
2023/08/20 04:21:16;;;;;;;9.52;5.47;;;;;;;;;;5030656;28;20072;-89
2023/08/20 04:23:42;;;;;;;6.57;5.20;;;;;;;;;;5014663;28;20405;-89
2023/08/20 04:26:08;;;;;;;8.02;6.40;;;;;;;;;;5030927;28;20114;-89
2023/08/20 04:28:34;;;;;;;7.55;5.90;;;;;;;;;;5032106;28;20084;-88
2023/08/20 04:31:00;;;;;;;7.68;6.20;;;;;;;;;;5014346;28;20033;-89
2023/08/20 04:33:34;;;;;;;7.70;6.03;;;;;;;;;;5015245;28;20052;-89
2023/08/20 04:36:00;;;;;;;8.32;6.45;;;;;;;;;;5014177;28;20041;-89
2023/08/20 04:38:26;;;;;;;7.68;6.13;;;;;;;;;;5014560;28;20037;-89
2023/08/20 04:40:51;;;;;;;6.75;6.05;;;;;;;;;;5030706;28;20025;-89
2023/08/20 04:43:17;;;;;;;7.03;6.00;;;;;;;;;;5032528;28;20502;-90
2023/08/20 04:45:42;;;;;;;8.18;5.50;;;;;;;;;;5014150;28;20548;-89
2023/08/20 04:48:08;;;;;;;6.47;5.72;;;;;;;;;;5030962;28;20481;-89
2023/08/20 04:50:34;;;;;;;7.05;5.47;;;;;;;;;;5013545;28;20034;-89
2023/08/20 04:52:59;;;;;;;7.80;6.15;;;;;;;;;;5031543;28;20033;-88
2023/08/20 04:55:29;;;;;;;7.32;5.57;;;;;;;;;;5030663;28;20044;-89
2023/08/20 04:57:54;;;;;;;7.57;6.15;;;;;;;;;;5030491;28;20489;-89
2023/08/20 05:00:21;;;;;;;7.25;5.63;;;;;;;;;;5031669;28;20048;-89
2023/08/20 05:02:50;;;;;;;7.50;5.78;;;;;;;;;;5014362;28;20481;-89
2023/08/20 05:05:17;;;;;;;10.50;5.97;;;;;;;;;;5030322;28;20413;-89
2023/08/20 05:07:43;;;;;;;6.93;6.00;;;;;;;;;;4998124;28;20032;-88
2023/08/20 05:10:09;;;;;;;6.90;5.82;;;;;;;;;;5014571;28;20464;-88
2023/08/20 05:12:35;;;;;;;7.88;7.03;;;;;;;;;;4997994;28;20026;-87
2023/08/20 05:15:00;;;;;;;12.27;7.97;;;;;;;;;;5014903;28;20519;-88
2023/08/20 05:17:26;;;;;;;10.07;7.28;;;;;;;;;;5014335;28;20476;-88
2023/08/20 05:19:52;;;;;;;11.82;9.32;;;;;;;;;;5031461;28;20091;-88
2023/08/20 05:22:17;;;;;;;14.77;10.48;;;;;;;;;;5030694;28;20036;-88
2023/08/20 05:24:43;;;;;;;13.93;10.13;;;;;;;;;;5030850;28;20049;-89
2023/08/20 05:27:14;;;;;;;10.52;9.30;;;;;;;;;;5031161;28;20485;-88
2023/08/20 05:29:41;;;;;;;18.45;15.05;;;;;;;;;;5014596;28;20037;-88
2023/08/20 05:32:07;;;;;;;14.00;8.90;;;;;;;;;;5014041;28;20028;-88
2023/08/20 05:34:32;;;;;;;10.63;7.47;;;;;;;;;;5031720;28;20558;-88
2023/08/20 05:36:58;;;;;;;12.07;7.90;;;;;;;;;;4997910;28;20152;-88
2023/08/20 05:39:25;;;;;;;15.52;8.20;;;;;;;;;;4997932;28;20026;-88
2023/08/20 05:41:52;;;;;;;10.55;7.45;;;;;;;;;;5014347;28;20116;-89
2023/08/20 05:44:18;;;;;;;10.00;7.60;;;;;;;;;;5030910;28;20076;-89
2023/08/20 05:46:44;;;;;;;9.18;6.97;;;;;;;;;;5014449;28;20026;-89
2023/08/20 05:49:15;;;;;;;11.05;8.18;;;;;;;;;;5031919;28;20041;-89
2023/08/20 05:51:45;;;;;;;10.98;7.65;;;;;;;;;;5015517;28;20519;-90
2023/08/20 05:54:11;;;;;;;8.70;7.47;;;;;;;;;;5030618;28;20502;-87
2023/08/20 05:56:37;;;;;;;8.48;7.15;;;;;;;;;;5030634;28;20183;-89
2023/08/20 05:59:02;;;;;;;11.90;7.22;;;;;;;;;;5030721;28;20048;-88
2023/08/20 06:01:28;;;;;;;11.32;8.60;;;;;;;;;;5064279;28;20064;-88
2023/08/20 06:03:54;;;;;;;13.30;8.07;;;;;;;;;;5035066;28;20033;-89
2023/08/20 06:06:19;;;;;;;11.75;6.75;;;;;;;;;;5034068;28;20037;-88
2023/08/20 06:08:45;;;;;;;10.98;6.78;;;;;;;;;;5017547;28;20033;-89
2023/08/20 06:11:10;;;;;;;9.07;6.75;;;;;;;;;;5035422;28;20041;-88
2023/08/20 06:13:36;;;;;;;7.65;6.60;;;;;;;;;;5033849;28;20121;-89
2023/08/20 06:16:01;;;;;;;14.02;9.63;;;;;;;;;;5033887;28;20048;-89
2023/08/20 06:18:27;;;;;;;11.10;6.60;;;;;;;;;;5034009;28;20030;-89
2023/08/20 06:20:52;;;;;;;11.57;6.72;;;;;;;;;;5033593;28;20053;-89
2023/08/20 06:23:18;;;;;;;8.93;6.13;;;;;;;;;;5034973;28;20029;-89
2023/08/20 06:25:43;;;;;;;11.98;6.50;;;;;;;;;;5034876;28;20467;-89
2023/08/20 06:28:09;;;;;;;13.32;6.95;;;;;;;;;;5018134;28;20053;-90
2023/08/20 06:30:35;;;;;;;7.68;5.55;;;;;;;;;;5033827;28;20091;-89
2023/08/20 06:33:00;;;;;;;8.25;5.65;;;;;;;;;;5034232;28;20037;-90
2023/08/20 06:35:26;;;;;;;8.32;5.80;;;;;;;;;;5017319;28;20124;-89
2023/08/20 06:37:51;;;;;;;7.82;5.55;;;;;;;;;;5017456;28;20032;-89
2023/08/20 06:40:17;;;;;;;7.63;5.40;;;;;;;;;;5034564;28;20587;-89
2023/08/20 06:42:42;;;;;;;6.50;5.20;;;;;;;;;;5017249;28;20034;-89
2023/08/20 06:45:09;;;;;;;7.90;5.18;;;;;;;;;;5033829;28;20025;-89
2023/08/20 06:47:34;;;;;;;7.50;5.38;;;;;;;;;;5017197;28;20025;-88
2023/08/20 06:50:00;;;;;;;7.72;4.95;;;;;;;;;;5033186;28;20047;-89
2023/08/20 06:52:25;;;;;;;7.38;4.80;;;;;;;;;;5033562;28;20115;-89
2023/08/20 06:54:51;;;;;;;8.05;4.68;;;;;;;;;;5033118;28;20077;-90
2023/08/20 06:57:16;;;;;;;8.52;4.60;;;;;;;;;;5034230;28;20033;-89
2023/08/20 06:59:43;;;;;;;6.55;4.85;;;;;;;;;;5017160;28;20030;-89
2023/08/20 07:02:09;;;;;;;7.35;4.68;;;;;;;;;;5034845;28;20033;-88
2023/08/20 07:04:35;;;;;;;7.07;4.60;;;;;;;;;;5033086;28;20119;-88
2023/08/20 07:07:00;;;;;;;9.52;4.93;;;;;;;;;;5033435;28;20025;-88
2023/08/20 07:09:26;;;;;;;7.38;4.80;;;;;;;;;;5034990;28;20037;-88
2023/08/20 07:11:51;;;;;;;6.57;4.78;;;;;;;;;;5033393;28;20090;-88
2023/08/20 07:14:17;;;;;;;6.20;4.82;;;;;;;;;;5034946;28;20124;-87
2023/08/20 07:16:42;;;;;;;6.50;4.40;;;;;;;;;;5034625;28;20033;-88
2023/08/20 07:19:08;;;;;;;6.63;4.53;;;;;;;;;;5033370;28;20033;-89
2023/08/20 07:21:33;;;;;;;9.00;4.40;;;;;;;;;;5032768;28;20060;-89
2023/08/20 07:23:59;;;;;;;6.63;4.28;;;;;;;;;;5016489;28;20033;-89
2023/08/20 07:26:25;;;;;;;7.00;4.40;;;;;;;;;;5016725;28;20400;-89
2023/08/20 07:28:57;;;;;;;6.28;4.20;;;;;;;;;;5033294;28;20033;-89
2023/08/20 07:31:24;;;;;;;6.07;4.40;;;;;;;;;;5033325;28;20057;-89
2023/08/20 07:33:50;;;;;;;6.72;3.88;;;;;;;;;;5017009;28;20037;-89
2023/08/20 07:36:15;;;;;;;5.28;3.97;;;;;;;;;;5033289;28;20037;-89
2023/08/20 07:38:42;;;;;;;8.82;4.05;;;;;;;;;;5016754;28;20053;-89
2023/08/20 07:41:08;;;;;;;6.28;3.95;;;;;;;;;;5034502;28;20033;-89
2023/08/20 07:43:34;;;;;;;5.38;3.80;;;;;;;;;;5034407;28;20112;-90
2023/08/20 07:45:59;;;;;;;6.22;4.10;;;;;;;;;;5034445;28;20099;-89
2023/08/20 07:48:24;;;;;;;5.43;3.95;;;;;;;;;;5033864;28;20087;-88
2023/08/20 07:50:50;;;;;;;6.82;3.58;;;;;;;;;;5035438;28;20191;-89
2023/08/20 07:53:15;;;;;;;4.47;3.92;;;;;;;;;;5016184;28;20063;-89
2023/08/20 07:55:41;;;;;;;6.57;4.05;;;;;;;;;;5033422;28;20386;-88
2023/08/20 07:58:06;;;;;;;6.28;3.97;;;;;;;;;;5015999;28;20476;-88
2023/08/20 08:00:32;;;;;;;5.28;4.60;;;;;;;;;;5032784;28;20036;-90
2023/08/20 08:02:57;;;;;;;7.82;5.68;;;;;;;;;;5034522;28;20025;-90
2023/08/20 08:05:23;;;;;;;7.57;4.70;;;;;;;;;;5033164;28;20037;-89
2023/08/20 08:07:48;;;;;;;10.45;7.30;;;;;;;;;;5032439;28;20865;-90
2023/08/20 08:13:45;;;;;;;6.78;4.18;;;;;;;;;;5034165;28;20250;-88
2023/08/20 08:16:11;;;;;;;8.95;4.30;;;;;;;;;;5033562;28;20492;-89
2023/08/20 08:18:36;;;;;;;8.43;4.55;;;;;;;;;;5016049;28;20032;-89
2023/08/20 08:21:02;;;;;;;5.10;3.38;;;;;;;;;;5033927;28;20056;-89
2023/08/20 08:23:28;;;;;;;4.15;3.60;;;;;;;;;;5032696;28;20045;-90
2023/08/20 08:25:53;;;;;;;6.88;4.40;;;;;;;;;;5033218;28;20476;-89
2023/08/20 08:28:18;;;;;;;7.53;3.90;;;;;;;;;;5016545;28;20025;-90
2023/08/20 08:30:44;;;;;;;5.03;4.28;;;;;;;;;;5016557;28;20041;-90
2023/08/20 08:33:09;;;;;;;10.90;4.57;;;;;;;;;;5032327;28;20400;-90
2023/08/20 08:35:35;;;;;;;9.23;3.95;;;;;;;;;;5032175;28;20041;-90
2023/08/20 08:38:01;;;;;;;7.22;4.07;;;;;;;;;;5015754;28;20481;-89
2023/08/20 08:40:28;;;;;;;6.18;4.15;;;;;;;;;;5033420;28;20033;-90
2023/08/20 08:42:53;;;;;;;6.13;3.13;;;;;;;;;;5032234;28;20163;-89
2023/08/20 08:45:21;;;;;;;8.43;3.95;;;;;;;;;;5032588;28;20080;-90
2023/08/20 08:47:47;;;;;;;6.53;4.07;;;;;;;;;;5015837;28;20033;-89
2023/08/20 08:50:13;;;;;;;6.32;3.88;;;;;;;;;;5033061;28;20036;-89
2023/08/20 08:52:39;;;;;;;6.60;4.03;;;;;;;;;;5016115;28;20025;-90
2023/08/20 08:55:07;;;;;;;5.43;3.38;;;;;;;;;;5032902;28;20566;-91
2023/08/20 08:57:33;;;;;;;7.95;4.07;;;;;;;;;;5033168;28;20095;-90
2023/08/20 08:59:58;;;;;;;4.47;3.00;;;;;;;;;;5017541;28;20026;-90
2023/08/20 09:02:24;;;;;;;4.88;3.97;;;;;;;;;;5033308;28;20021;-90
2023/08/20 09:04:49;;;;;;;5.45;3.92;;;;;;;;;;5016438;28;20412;-89
2023/08/20 09:07:15;;;;;;;5.72;4.00;;;;;;;;;;5032495;28;20049;-90
2023/08/20 09:09:44;;;;;;;5.18;3.95;;;;;;;;;;5032496;28;20034;-90
2023/08/20 09:12:18;;;;;;;6.30;4.00;;;;;;;;;;5032408;28;20033;-90
2023/08/20 09:14:47;;;;;;;6.73;4.17;;;;;;;;;;5032185;28;20041;-89
2023/08/20 09:17:13;;;;;;;8.30;4.10;;;;;;;;;;5031548;28;20287;-90
2023/08/20 09:19:39;;;;;;;5.90;3.92;;;;;;;;;;5032333;28;20060;-89
2023/08/20 09:22:04;;;;;;;6.07;3.75;;;;;;;;;;5032093;28;20056;-90
2023/08/20 09:24:54;;;;;;;5.93;4.13;;;;;;;;;;5016013;28;20037;-90
2023/08/20 09:27:19;;;;;;;6.15;3.95;;;;;;;;;;5030609;28;20045;-90
2023/08/20 09:29:45;;;;;;;7.57;4.05;;;;;;;;;;5033677;28;20032;-90
2023/08/20 09:32:18;;;;;;;5.00;3.22;;;;;;;;;;5032444;28;20033;-90
2023/08/20 09:34:43;;;;;;;7.13;4.03;;;;;;;;;;5031431;28;20489;-90
2023/08/20 09:37:12;;;;;;;6.88;4.10;;;;;;;;;;5032254;28;20090;-90
2023/08/20 09:39:38;;;;;;;7.65;3.45;;;;;;;;;;5036608;28;20037;-90
2023/08/20 09:42:04;;;;;;;5.70;3.65;;;;;;;;;;5020087;28;20391;-89
2023/08/20 09:44:32;;;;;;;4.30;3.47;;;;;;;;;;5002761;28;20037;-91
2023/08/20 09:46:57;;;;;;;5.97;4.30;;;;;;;;;;5035921;28;20026;-89
2023/08/20 09:49:23;;;;;;;7.25;4.60;;;;;;;;;;5037457;28;20092;-89
2023/08/20 09:51:48;;;;;;;3.90;3.00;;;;;;;;;;5018656;28;20125;-89
2023/08/20 09:54:16;;;;;;;6.47;3.53;;;;;;;;;;5035356;28;20435;-90
2023/08/20 09:56:41;;;;;;;4.05;2.58;;;;;;;;;;5019290;28;20056;-91
2023/08/20 09:59:07;;;;;;;4.53;2.60;;;;;;;;;;5004555;28;20454;-90
2023/08/20 10:01:32;;;;;;;3.60;2.30;;;;;;;;;;5003211;28;20590;-89
2023/08/20 10:03:58;;;;;;;5.05;2.50;;;;;;;;;;5037759;28;20085;-89
2023/08/20 10:06:24;;;;;;;6.38;2.83;;;;;;;;;;5018438;28;20400;-88
2023/08/20 10:08:50;;;;;;;9.95;3.00;;;;;;;;;;5020689;28;20523;-90
2023/08/20 10:11:16;;;;;;;4.43;2.58;;;;;;;;;;5035696;28;20028;-89
2023/08/20 10:13:42;;;;;;;6.63;3.90;;;;;;;;;;5002363;28;20091;-90
2023/08/20 10:16:07;;;;;;;6.45;3.70;;;;;;;;;;5035364;28;20030;-90
2023/08/20 10:18:34;;;;;;;8.32;4.00;;;;;;;;;;5001735;28;20029;-90
2023/08/20 10:21:00;;;;;;;6.65;3.28;;;;;;;;;;5018175;28;20088;-90
2023/08/20 10:23:26;;;;;;;6.70;3.38;;;;;;;;;;5034518;28;20501;-91
2023/08/20 10:25:52;;;;;;;5.40;2.88;;;;;;;;;;5017948;28;20037;-90
2023/08/20 10:28:28;;;;;;;5.55;3.30;;;;;;;;;;5035833;28;20040;-88
2023/08/20 10:31:07;;;;;;;7.45;3.55;;;;;;;;;;5035481;28;20037;-90
2023/08/20 10:33:36;;;;;;;8.07;4.10;;;;;;;;;;5020810;28;20175;-91
2023/08/20 10:36:08;;;;;;;4.97;3.30;;;;;;;;;;5038859;28;20101;-90
2023/08/20 10:38:37;;;;;;;9.15;4.43;;;;;;;;;;5021232;28;20033;-90
2023/08/20 10:41:05;;;;;;;8.55;4.68;;;;;;;;;;5020809;28;20451;-92
2023/08/20 10:43:31;;;;;;;5.63;3.42;;;;;;;;;;5067166;28;20053;-90
2023/08/20 10:46:03;;;;;;;18.33;14.95;;;;;;;;;;5035499;28;20025;-90
2023/08/20 10:48:30;;;;;;;6.30;3.72;;;;;;;;;;5033896;28;20044;-91
2023/08/20 10:50:55;;;;;;;5.35;3.33;;;;;;;;;;5018597;28;20033;-91
2023/08/20 10:53:25;;;;;;;5.53;3.20;;;;;;;;;;5001956;28;20382;-90
2023/08/20 10:55:51;;;;;;;5.30;3.10;;;;;;;;;;5034082;28;20021;-91
2023/08/20 10:58:17;;;;;;;7.00;3.15;;;;;;;;;;5034261;28;20043;-90
2023/08/20 11:00:42;;;;;;;5.60;3.33;;;;;;;;;;5035492;28;20029;-89
2023/08/20 11:03:08;;;;;;;7.93;3.75;;;;;;;;;;5034358;28;20503;-90
2023/08/20 11:05:33;;;;;;;8.50;5.45;;;;;;;;;;5018086;28;20030;-90
2023/08/20 11:07:59;;;;;;;10.70;5.75;;;;;;;;;;5034618;28;20048;-92
2023/08/20 11:10:25;;;;;;;4.85;3.63;;;;;;;;;;5036454;28;20400;-89
2023/08/20 11:12:51;;;;;;;6.20;3.20;;;;;;;;;;5018238;28;20029;-91
2023/08/20 11:15:16;;;;;;;8.23;4.15;;;;;;;;;;5034653;28;20078;-90
2023/08/20 11:18:03;;;;;;;4.47;3.42;;;;;;;;;;5035418;28;20127;-89
2023/08/20 11:20:28;;;;;;;7.07;2.97;;;;;;;;;;5017403;28;20079;-89
2023/08/20 11:22:54;;;;;;;4.43;3.00;;;;;;;;;;5035184;28;20452;-89
2023/08/20 11:25:19;;;;;;;5.32;3.00;;;;;;;;;;5017442;28;20123;-90
2023/08/20 11:27:45;;;;;;;3.75;2.60;;;;;;;;;;5050645;28;20116;-90
2023/08/20 11:30:13;;;;;;;3.60;2.50;;;;;;;;;;5033368;28;20114;-91
2023/08/20 11:32:39;;;;;;;3.28;2.40;;;;;;;;;;5032983;28;20388;-89
2023/08/20 11:35:05;;;;;;;5.15;2.95;;;;;;;;;;5033057;28;20037;-88
2023/08/20 11:37:30;;;;;;;4.70;2.75;;;;;;;;;;5032991;28;20029;-91
2023/08/20 11:39:56;;;;;;;5.18;2.58;;;;;;;;;;5033492;28;20522;-88
2023/08/20 11:42:21;;;;;;;4.28;2.63;;;;;;;;;;5017222;28;20165;-90
2023/08/20 11:44:47;;;;;;;3.58;2.40;;;;;;;;;;5034296;28;20556;-89
2023/08/20 11:47:13;;;;;;;4.95;2.30;;;;;;;;;;5035140;28;20036;-88
2023/08/20 11:49:38;;;;;;;4.85;2.63;;;;;;;;;;5034629;28;20125;-89
2023/08/20 11:52:04;;;;;;;4.05;2.50;;;;;;;;;;5034806;28;20057;-90
2023/08/20 11:54:31;;;;;;;3.33;2.65;;;;;;;;;;5033322;28;20042;-90
2023/08/20 11:57:01;;;;;;;3.75;2.03;;;;;;;;;;5016434;28;20057;-92
2023/08/20 11:59:27;;;;;;;3.92;2.13;;;;;;;;;;5017228;28;20552;-88
2023/08/20 12:01:54;;;;;;;3.83;2.50;;;;;;;;;;5017004;28;20109;-89
2023/08/20 12:04:23;;;;;;;4.72;2.70;;;;;;;;;;5034025;28;20041;-90
2023/08/20 12:06:52;;;;;;;3.45;2.45;;;;;;;;;;5017108;28;20041;-90
2023/08/20 12:09:21;;;;;;;4.57;2.20;;;;;;;;;;5033778;28;20037;-90
2023/08/20 12:11:50;;;;;;;3.63;1.95;;;;;;;;;;5033903;28;20026;-88
2023/08/20 12:14:16;;;;;;;3.95;2.10;;;;;;;;;;5016811;28;20060;-89
2023/08/20 12:16:41;;;;;;;3.22;2.17;;;;;;;;;;5033347;28;20164;-89
2023/08/20 12:19:09;;;;;;;3.63;2.05;;;;;;;;;;5034893;28;20056;-90
2023/08/20 12:21:34;;;;;;;3.05;2.15;;;;;;;;;;5034785;28;20048;-89
2023/08/20 12:24:00;;;;;;;2.92;2.00;;;;;;;;;;5033781;28;20033;-90
2023/08/20 12:26:25;;;;;;;4.13;2.10;;;;;;;;;;5033311;28;20041;-90
2023/08/20 12:28:51;;;;;;;3.38;2.30;;;;;;;;;;5032907;28;20050;-90
2023/08/20 12:31:16;;;;;;;4.38;2.40;;;;;;;;;;5033099;28;20040;-90
2023/08/20 12:33:42;;;;;;;5.18;1.95;;;;;;;;;;5033249;28;20030;-90
2023/08/20 12:36:07;;;;;;;3.55;2.50;;;;;;;;;;5033166;28;20025;-90
2023/08/20 12:38:34;;;;;;;5.85;2.55;;;;;;;;;;5035137;28;20041;-90
2023/08/20 12:41:00;;;;;;;3.63;2.60;;;;;;;;;;5033698;28;20037;-90
2023/08/20 12:43:26;;;;;;;3.05;2.30;;;;;;;;;;5034826;28;20060;-91
2023/08/20 12:45:52;;;;;;;4.32;2.30;;;;;;;;;;5033203;28;20105;-89
2023/08/20 12:48:17;;;;;;;2.58;1.95;;;;;;;;;;5032717;28;20044;-89
2023/08/20 12:50:42;;;;;;;5.07;2.10;;;;;;;;;;5033604;28;20044;-91
2023/08/20 12:53:08;;;;;;;4.25;2.22;;;;;;;;;;5033164;28;20090;-90
2023/08/20 12:55:34;;;;;;;2.33;2.05;;;;;;;;;;5032451;28;20029;-91
2023/08/20 12:57:59;;;;;;;4.10;2.10;;;;;;;;;;5032737;28;20052;-90
2023/08/20 13:00:25;;;;;;;2.70;1.80;;;;;;;;;;5034206;28;20025;-90
2023/08/20 13:02:51;;;;;;;4.45;2.13;;;;;;;;;;5000458;28;20032;-90
2023/08/20 13:05:17;;;;;;;3.33;2.05;;;;;;;;;;5032143;28;20036;-91
2023/08/20 13:07:43;;;;;;;2.72;2.33;;;;;;;;;;5032801;28;20041;-90
2023/08/20 13:10:08;;;;;;;5.32;2.38;;;;;;;;;;5032378;28;20128;-90
2023/08/20 13:12:34;;;;;;;2.83;2.10;;;;;;;;;;5034175;28;20040;-91
2023/08/20 13:14:59;;;;;;;5.50;2.30;;;;;;;;;;5038215;28;20036;-89
2023/08/20 13:17:26;;;;;;;5.32;2.03;;;;;;;;;;5037753;28;20053;-90
2023/08/20 13:19:51;;;;;;;4.03;2.15;;;;;;;;;;5036623;28;20108;-88
2023/08/20 13:22:17;;;;;;;5.57;2.38;;;;;;;;;;5037789;28;20065;-90
2023/08/20 13:24:42;;;;;;;5.15;2.13;;;;;;;;;;5037049;28;20056;-90
2023/08/20 13:27:08;;;;;;;5.15;2.53;;;;;;;;;;5036651;28;20044;-90
2023/08/20 13:29:33;;;;;;;6.68;2.47;;;;;;;;;;5036486;28;20108;-90
2023/08/20 13:32:00;;;;;;;4.15;2.30;;;;;;;;;;5037029;28;20040;-91
2023/08/20 13:34:25;;;;;;;7.22;2.90;;;;;;;;;;5036194;28;20021;-90
2023/08/20 13:36:51;;;;;;;5.28;2.38;;;;;;;;;;5035830;28;20133;-90
2023/08/20 13:39:18;;;;;;;2.90;2.33;;;;;;;;;;5036611;28;20392;-89
2023/08/20 13:41:43;;;;;;;4.50;2.58;;;;;;;;;;5019956;28;20095;-88
2023/08/20 13:44:09;;;;;;;5.68;2.88;;;;;;;;;;5035918;28;20040;-90
2023/08/20 13:46:34;;;;;;;7.80;2.60;;;;;;;;;;5035636;28;20042;-90
2023/08/20 13:49:00;;;;;;;4.60;2.63;;;;;;;;;;5035307;28;20395;-89
2023/08/20 13:51:25;;;;;;;5.30;2.60;;;;;;;;;;5034749;28;20075;-89
2023/08/20 13:53:51;;;;;;;6.57;2.72;;;;;;;;;;5034779;28;20025;-89
2023/08/20 13:56:16;;;;;;;6.63;3.20;;;;;;;;;;5036060;28;20519;-89
2023/08/20 13:58:42;;;;;;;6.93;2.67;;;;;;;;;;5035185;28;20100;-90
2023/08/20 14:01:07;;;;;;;7.78;2.97;;;;;;;;;;5036471;28;20377;-90
2023/08/20 14:03:32;;;;;;;5.38;2.90;;;;;;;;;;5036344;28;20030;-90
2023/08/20 14:05:58;;;;;;;6.07;3.25;;;;;;;;;;5034696;28;20037;-90
2023/08/20 14:08:23;;;;;;;6.10;2.90;;;;;;;;;;5019719;28;20041;-89
2023/08/20 14:10:49;;;;;;;6.90;3.30;;;;;;;;;;5037043;28;20101;-89
2023/08/20 14:13:14;;;;;;;5.90;2.65;;;;;;;;;;5017968;28;20076;-89
2023/08/20 14:15:40;;;;;;;6.03;2.72;;;;;;;;;;5035929;28;20044;-90
2023/08/20 14:18:05;;;;;;;5.88;2.88;;;;;;;;;;5018703;28;20528;-89
2023/08/20 14:20:31;;;;;;;4.40;3.00;;;;;;;;;;5018284;28;20057;-90
2023/08/20 14:22:56;;;;;;;6.18;2.75;;;;;;;;;;5018351;28;20041;-90
2023/08/20 14:25:22;;;;;;;4.53;2.97;;;;;;;;;;5036030;28;20025;-90
2023/08/20 14:27:47;;;;;;;5.38;2.78;;;;;;;;;;5035774;28;20531;-90
2023/08/20 14:30:13;;;;;;;3.58;2.30;;;;;;;;;;5018169;28;20413;-89
2023/08/20 14:32:38;;;;;;;5.85;2.90;;;;;;;;;;5035685;28;20558;-89
2023/08/20 14:35:04;;;;;;;6.38;3.38;;;;;;;;;;5034228;28;20488;-91
2023/08/20 14:37:31;;;;;;;3.55;2.42;;;;;;;;;;5034546;28;20033;-90
2023/08/20 14:39:56;;;;;;;5.28;3.38;;;;;;;;;;5034931;28;20171;-89